Terminal Aerodrome Forecast
Issued by NWS

Home | Current Version | Previous Version | Text Only | Print | Product List | Glossary On
Versions: 1 2 3 4 5 6 7 8 9 10 11 12 13 14 15 16 17 18 19 20 21 22 23 24 25 26 27 28 29 30 31 32
000
FTUS46 KSGX 260901 AAA
TAFSAN
TAF AMD
KSAN 260901Z 2609/2712 VRB03KT P6SM OVC015
     FM261800 28007KT P6SM BKN022
     FM262200 29010KT P6SM SCT025
     FM270200 VRB05KT P6SM OVC020=

USA.gov is the U.S. government's official web portal to all federal, state and local government web resources and services.